x

South Michigan - 43nm East Southeast Of Milwaukee, Wi (45007) Wave Buoy

3:50am - Thu 27th Jul 2017 All times are CDT. -5 hours from GMT.

  • Sig Wave height 0.3ft
  • Average Period 3s
  • Wind
    9mph, 13mph gusts
  • Sea Temp 71°f
  • Air Temp 71°f
  • Sea Pressure 1013.1mb
  • South Michigan - 43nm East Southeast Of Milwaukee, Wi
  • South Michigan - 43nm East Southeast Of Milwaukee, Wi

More Historic Weather Station data

Upgrade to MSW Pro to gain access to the past 30 days of data for over 8000 Wavebouys and Weather Stations around the globe.

Join Pro

Comparision Forecast

View Surf forecast
   
Thu 07/27 3:50am 0.3ft  -  3s 9 13 mph 1013.1mb 71f 71f
2:50am 0.7ft  -  3s 4 4 mph 1013.1mb 70f 72f
1:50am 0.3ft  -  3s 9 9 mph 1013.1mb 70f 73f
12:50am 0.3ft  -  3s 9 9 mph 1013.6mb 70f 73f
Wed 07/26 11:50pm 0.7ft  -  3s 7 9 mph 1014.2mb 70f 73f
10:50pm 0.7ft  -  3s 11 11 mph 1014.5mb 70f 73f
9:50pm 0.7ft  -  3s 9 9 mph 1014.9mb 70f 73f
8:50pm 0.7ft  -  3s 9 9 mph 1014.8mb 70f 73f
7:50pm 0.7ft  -  3s 9 9 mph 1015mb 71f 73f
6:50pm 1ft 4s 3s 7 7 mph 1015.5mb 71f 73f
5:50pm 1ft 4s 3s 9 9 mph 1015.3mb 71f 73f
4:50pm 1.3ft 4s 3s 11 11 mph 1015.7mb 71f 73f
3:50pm 1.6ft 4s 3s 11 13 mph 1016.4mb 71f 73f
2:50pm 2ft 4s 3s 13 13 mph 1016.8mb 71f 72f
1:50pm 2.5ft 5s 4s 9 11 mph 1017.4mb 71f 72f
12:50pm 2.5ft 5s 4s 11 13 mph 1017.6mb 71f 71f
11:50am 2.5ft 5s 4s 16 18 mph 1017.2mb 70f 71f
10:50am 2.5ft 5s 4s 13 16 mph 1018mb 70f 71f
9:50am 2.5ft 5s 4s 13 16 mph 1018.3mb 70f 71f
8:50am 3ft 5s 4s 13 18 mph 1018.5mb 70f 71f
7:50am 3ft 5s 4s 16 20 mph 1018.7mb 70f 71f
6:50am 2.5ft 5s 4s 18 20 mph 1018.1mb 70f 71f
5:50am 2.5ft 5s 4s 16 18 mph 1018.5mb 70f 71f
4:50am 2.5ft 4s 4s 18 20 mph 1019.1mb 70f 71f
3:50am 2ft 4s 3s 20 25 mph 1018.4mb 71f 72f
2:50am 1.3ft 4s 3s 16 16 mph 1020.1mb 71f 72f
1:50am 1ft 3s 3s 13 16 mph 1020.1mb 71f 73f
12:50am 1ft 3s 3s 13 16 mph 1019.7mb 71f 73f
Tue 07/25 11:50pm 0.7ft  -  3s 9 13 mph 1020.7mb 71f 73f
10:50pm 0.7ft  -  3s 11 13 mph 1020.6mb 71f 72f
9:50pm 0.7ft  -  3s 9 11 mph 1021mb 71f 72f
8:50pm 0.7ft  -  3s 7 7 mph 1020.9mb 71f 72f
7:50pm 0.7ft  -  3s 7 9 mph 1020.4mb 71f 72f
6:50pm 1ft 3s 3s 11 11 mph 1020.3mb 71f 72f
5:50pm 1ft 3s 3s 13 13 mph 1020.5mb 71f 71f
4:50pm 1ft 4s 3s 11 13 mph 1021.4mb 71f 71f
3:50pm 1.3ft 4s 3s 7 7 mph 1022.7mb 71f 71f
2:50pm 1.6ft 4s 4s 4 7 mph 1023.3mb 70f 71f
1:50pm 1.6ft 4s 4s 9 11 mph 1023.4mb 70f 71f
12:50pm 2ft 4s 4s 11 13 mph 1023.6mb 70f 70f
11:50am 2ft 4s 4s 16 18 mph 1023.2mb 70f 70f
10:50am 1.3ft 3s 3s 13 16 mph 1023.1mb 71f 70f
9:50am 1.3ft 3s 3s 13 16 mph 1022.9mb 71f 70f
8:50am 1ft 5s 3s 11 13 mph 1023.1mb 71f 71f
7:50am 1ft 5s 4s 11 13 mph 1022.6mb 71f 70f
6:50am 1.3ft 5s 4s 11 11 mph 1022mb 71f 70f
5:50am 1.6ft 6s 4s 7 9 mph 1021.9mb 71f 70f
4:50am 1.6ft 5s 4s 2 4 mph 1021.4mb 71f 69f
3:50am 2ft 5s 5s 4 4 mph 1021mb 71f 70f
2:50am 2ft 6s 5s 7 9 mph 1020.2mb 71f 70f
1:50am 2ft 6s 4s 7 9 mph 1020.3mb 71f 69f
12:50am 2.5ft 6s 4s 9 11 mph 1020.5mb 70f 69f
Mon 07/24 11:50pm 3ft 6s 4s 11 13 mph 1019.7mb 70f 68f
10:50pm 3.5ft 6s 4s 13 13 mph 1019.6mb 70f 68f
9:50pm 3.5ft 6s 4s 13 16 mph 1019.3mb 70f 68f
8:50pm 4ft 6s 5s 13 16 mph 1018.6mb 70f 67f
7:50pm 4.5ft 6s 5s 16 18 mph 1018.5mb 70f 67f
6:50pm 4.5ft 6s 5s 16 18 mph 1018.2mb 70f 67f
5:50pm 4.5ft 6s 5s 16 18 mph 1018.1mb 70f 67f
4:50pm 4.5ft 6s 5s 16 18 mph 1017.8mb 70f 67f
3:50pm 4.5ft 6s 5s 16 18 mph 1017.5mb 70f 67f
2:50pm 4.5ft 7s 5s 13 16 mph 1017.6mb 70f 67f
1:50pm 4ft 6s 5s 13 18 mph 1017.7mb 70f 66f
12:50pm 4ft 7s 5s 13 18 mph 1017.4mb 70f 66f
11:50am 4.5ft 7s 5s 13 16 mph 1017.1mb 70f 65f
10:50am 4.5ft 7s 5s 16 20 mph 1016.7mb 70f 66f
9:50am 4.5ft 5s 5s 20 22 mph 1016.1mb 70f 66f
8:50am 4.5ft 7s 5s 20 25 mph 1015.9mb 70f 66f
7:50am 5ft 7s 5s 18 22 mph 1015.4mb 69f 67f
6:50am 4.5ft 6s 5s 22 25 mph 1014.6mb 70f 67f
5:50am 4.5ft 7s 5s 20 25 mph 1014mb 70f 67f
4:50am 5ft 6s 5s 20 25 mph 1013.3mb 69f 67f
3:50am 5ft 6s 5s 18 22 mph 1012.9mb 70f 66f
2:50am 5ft 6s 5s 20 22 mph 1012.6mb 70f 67f
1:50am 4.5ft 5s 4s 20 25 mph 1012.3mb 70f 67f
12:50am 4ft 5s 4s 22 25 mph 1011.8mb 70f 67f
Sun 07/23 11:50pm 3.5ft 5s 4s 22 25 mph 1011.5mb 70f 67f
10:50pm 3ft 4s 4s 25 31 mph 1010.7mb 70f 68f
9:50pm 1.6ft 3s 3s 22 27 mph 1010.2mb 71f 70f
8:50pm 1ft 2s 3s 20 25 mph 1009.7mb 71f 70f
7:50pm 0.3ft  -  3s 11 13 mph 1009.2mb 71f 72f
6:50pm 0.3ft  -  3s 9 9 mph 1008.6mb 72f 72f
5:50pm 0.3ft  -  3s 7 9 mph 1008.5mb 71f 73f
4:50pm 0.3ft  -  3s 7 9 mph 1008.5mb 71f 73f
3:50pm 0.3ft  -  3s 4 7 mph 1008.4mb 72f 74f
2:50pm 0.7ft  -  2s 4 4 mph 1008.7mb 72f 74f
1:50pm 0.7ft  -  2s 4 7 mph 1008.6mb 71f 73f
12:50pm 0.7ft  -  2s 7 9 mph 1008.8mb 71f 72f
11:50am 0.3ft  -  2s 9 11 mph 1008.7mb 71f 72f
10:50am 0.3ft  -  2s 11 11 mph 1008.8mb 71f 72f